createdAt,value
2017-10-20T10:17:35.001Z,548.00
2017-10-20T10:23:36.234Z,524.00
2017-10-20T10:24:36.190Z,516.00
2017-10-20T10:26:29.210Z,520.00
2017-10-20T10:28:28.713Z,464.00
2017-10-20T10:29:28.648Z,352.00
2017-10-20T10:31:21.657Z,352.00
2017-10-20T10:32:21.602Z,348.00
2017-10-20T10:34:16.575Z,344.00
2017-10-20T10:35:14.689Z,344.00
2017-10-20T10:37:07.566Z,336.00
2017-10-20T10:38:08.172Z,332.00
2017-10-20T10:40:00.540Z,328.00
2017-10-20T10:41:00.472Z,324.00
2017-10-20T10:42:53.490Z,324.00
2017-10-20T10:43:53.435Z,320.00
2017-10-20T10:45:46.443Z,316.00
2017-10-20T10:46:46.383Z,316.00
2017-10-20T10:48:40.325Z,304.00
2017-10-20T10:51:33.280Z,312.00
2017-10-20T10:52:33.221Z,308.00
2017-10-20T10:54:26.223Z,308.00
2017-10-20T10:55:26.168Z,312.00
2017-10-20T10:57:24.639Z,312.00
2017-10-20T10:58:19.125Z,312.00
2017-10-20T11:00:12.145Z,312.00
2017-10-20T11:01:12.083Z,320.00
2017-10-20T11:03:05.086Z,364.00
2017-10-20T11:04:05.038Z,352.00
2017-10-20T11:05:59.003Z,340.00
2017-10-20T11:06:58.927Z,336.00
2017-10-20T11:08:52.386Z,332.00
2017-10-20T11:09:51.864Z,336.00
2017-10-20T11:11:45.339Z,64.00
2017-10-20T11:12:44.824Z,116.00
2017-10-20T11:14:37.845Z,96.00
2017-10-20T11:15:37.806Z,104.00
2017-10-20T11:17:30.843Z,92.00
2017-10-20T11:18:30.737Z,104.00
2017-10-20T11:20:24.218Z,120.00
2017-10-20T11:21:23.683Z,120.00
2017-10-20T11:23:17.159Z,112.00
2017-10-20T11:26:10.610Z,92.00
2017-10-20T11:27:09.596Z,76.00
2017-10-20T11:29:03.574Z,48.00
2017-10-20T11:30:03.485Z,52.00
2017-10-20T11:31:56.499Z,52.00
2017-10-20T11:32:56.540Z,56.00
2017-10-20T11:34:50.426Z,64.00
2017-10-20T11:35:50.303Z,68.00
2017-10-20T11:37:43.383Z,64.00
2017-10-20T11:38:43.259Z,60.00
2017-10-20T11:40:36.264Z,228.00
2017-10-20T11:41:36.236Z,256.00
2017-10-20T11:43:29.222Z,280.00
2017-10-20T11:44:29.186Z,280.00
2017-10-20T11:46:22.186Z,280.00
2017-10-20T11:47:22.121Z,272.00
2017-10-20T11:49:15.608Z,264.00
2017-10-20T11:50:15.081Z,264.00
2017-10-20T11:52:08.105Z,276.00
2017-10-20T11:53:08.036Z,276.00
2017-10-20T11:55:01.974Z,276.00
2017-10-20T11:56:01.911Z,272.00
2017-10-20T11:57:56.525Z,272.00
2017-10-20T11:58:55.788Z,272.00
2017-10-20T12:00:48.820Z,276.00
2017-10-20T12:01:48.748Z,280.00
2017-10-20T12:03:41.751Z,292.00
2017-10-20T12:04:41.705Z,300.00
2017-10-20T12:07:34.652Z,292.00
2017-10-20T12:09:28.626Z,284.00
2017-10-20T12:10:28.223Z,280.00
2017-10-20T12:12:22.154Z,272.00
2017-10-20T12:13:22.114Z,272.00
2017-10-20T12:15:15.108Z,268.00
2017-10-20T12:16:15.052Z,272.00
2017-10-20T12:18:08.362Z,280.00
2017-10-20T12:19:08.356Z,284.00
2017-10-20T12:21:01.328Z,292.00
2017-10-20T12:22:01.930Z,284.00
2017-10-20T12:23:54.299Z,284.00
2017-10-20T12:24:54.227Z,284.00
2017-10-20T12:26:48.176Z,276.00
2017-10-20T12:27:48.107Z,280.00
2017-10-20T12:29:41.113Z,280.00
2017-10-20T12:30:41.059Z,276.00
2017-10-20T12:32:34.391Z,280.00
2017-10-20T12:33:34.330Z,276.00
2017-10-20T12:35:27.328Z,280.00
2017-10-20T12:36:27.282Z,276.00
2017-10-20T12:38:20.284Z,264.00
2017-10-20T12:39:20.902Z,264.00
2017-10-20T12:41:13.242Z,268.00
2017-10-20T12:42:13.190Z,268.00
2017-10-20T12:44:06.196Z,268.00
2017-10-20T12:45:06.145Z,268.00
2017-10-20T12:46:59.162Z,272.00
2017-10-20T12:47:59.100Z,276.00
2017-10-20T12:49:52.175Z,284.00
2017-10-20T12:50:52.054Z,284.00
2017-10-20T12:52:45.180Z,288.00
2017-10-20T12:53:45.005Z,288.00
2017-10-20T12:55:38.025Z,280.00
2017-10-20T12:56:37.968Z,280.00
2017-10-20T12:58:31.451Z,280.00
2017-10-20T12:59:30.917Z,276.00
2017-10-20T13:01:24.382Z,276.00
2017-10-20T13:02:23.872Z,276.00
2017-10-20T13:04:16.882Z,276.00
2017-10-20T13:05:16.827Z,280.00
2017-10-20T13:07:09.871Z,272.00
2017-10-20T13:08:09.784Z,268.00
2017-10-20T13:10:02.816Z,268.00
2017-10-20T13:11:02.737Z,264.00
2017-10-20T13:12:56.746Z,260.00
2017-10-20T13:13:56.614Z,264.00
2017-10-20T13:15:50.546Z,260.00
2017-10-20T13:16:50.490Z,248.00
2017-10-20T13:18:43.498Z,256.00
2017-10-20T13:19:43.445Z,252.00
2017-10-20T13:21:36.472Z,252.00
2017-10-20T13:22:36.403Z,252.00
2017-10-20T13:24:30.963Z,256.00
2017-10-20T13:25:30.890Z,260.00
2017-10-20T13:27:23.898Z,256.00
2017-10-20T13:28:23.852Z,260.00
2017-10-20T13:30:18.265Z,256.00
2017-10-20T13:31:18.043Z,256.00
2017-10-20T13:33:11.514Z,256.00
2017-10-20T13:34:10.985Z,256.00
2017-10-20T13:36:04.469Z,256.00
2017-10-20T13:37:03.941Z,256.00
2017-10-20T13:38:57.257Z,260.00
2017-10-20T13:39:57.234Z,260.00
2017-10-20T13:41:50.224Z,264.00
2017-10-20T13:42:50.160Z,264.00
2017-10-20T13:44:44.144Z,264.00
2017-10-20T13:45:44.050Z,264.00
2017-10-20T13:47:37.112Z,256.00
2017-10-20T13:48:36.991Z,260.00
2017-10-20T13:50:30.921Z,256.00
2017-10-20T13:51:30.871Z,252.00
2017-10-20T13:53:24.501Z,252.00
2017-10-20T13:54:23.826Z,252.00
2017-10-20T13:56:17.301Z,252.00
2017-10-20T13:57:16.784Z,248.00
2017-10-20T13:59:09.804Z,252.00
2017-10-20T14:00:09.738Z,252.00
2017-10-20T14:02:02.757Z,252.00
2017-10-20T14:03:02.721Z,252.00
2017-10-20T14:04:55.716Z,248.00
2017-10-20T14:05:55.643Z,248.00
2017-10-20T14:07:48.645Z,252.00
2017-10-20T14:08:48.602Z,252.00
2017-10-20T14:10:41.607Z,248.00
2017-10-20T14:11:41.551Z,244.00
2017-10-20T14:13:35.534Z,240.00
2017-10-20T14:14:35.436Z,240.00
2017-10-20T14:16:28.453Z,244.00
2017-10-20T14:17:28.383Z,244.00
2017-10-20T14:19:22.329Z,244.00
2017-10-20T14:20:22.262Z,244.00
2017-10-20T14:22:15.266Z,248.00
2017-10-20T14:23:15.220Z,244.00
2017-10-20T14:25:08.242Z,244.00
2017-10-20T14:26:08.169Z,244.00
2017-10-20T14:28:02.047Z,244.00
2017-10-20T14:29:01.743Z,244.00
2017-10-20T14:30:54.752Z,244.00
2017-10-20T14:31:54.696Z,248.00
2017-10-20T14:33:47.727Z,248.00
2017-10-20T14:34:47.686Z,252.00
2017-10-20T14:36:41.595Z,252.00
2017-10-20T14:37:41.531Z,252.00
2017-10-20T14:39:35.007Z,256.00
2017-10-20T14:40:34.484Z,256.00
2017-10-20T14:42:27.505Z,260.00
2017-10-20T14:43:27.437Z,252.00
2017-10-20T14:45:20.445Z,244.00
2017-10-20T14:46:20.393Z,244.00
2017-10-20T14:48:13.414Z,244.00
2017-10-20T14:49:13.352Z,244.00
2017-10-20T14:51:06.357Z,244.00
2017-10-20T14:52:06.304Z,248.00
2017-10-20T14:53:59.312Z,244.00
2017-10-20T14:54:59.257Z,248.00
2017-10-20T14:56:52.291Z,248.00
2017-10-20T14:57:52.214Z,252.00
2017-10-20T14:59:45.234Z,252.00
2017-10-20T15:00:45.194Z,256.00
2017-10-20T15:02:38.354Z,260.00
2017-10-20T15:03:38.266Z,252.00
2017-10-20T15:05:31.178Z,256.00
2017-10-20T15:06:31.086Z,256.00
2017-10-20T15:08:24.086Z,256.00
2017-10-20T15:09:24.701Z,256.00
2017-10-20T15:11:17.075Z,272.00
2017-10-20T15:12:17.006Z,276.00
2017-10-20T15:14:10.015Z,284.00
2017-10-20T15:15:09.954Z,276.00
2017-10-20T15:17:02.989Z,268.00
2017-10-20T15:18:03.631Z,264.00
2017-10-20T15:19:56.007Z,260.00
2017-10-20T15:20:55.859Z,268.00
2017-10-20T15:22:48.889Z,272.00
2017-10-20T15:23:48.811Z,268.00
2017-10-20T15:25:42.436Z,264.00
2017-10-20T15:26:42.429Z,272.00
2017-10-20T15:28:35.411Z,272.00
2017-10-20T15:29:35.344Z,272.00
2017-10-20T15:31:28.817Z,284.00
2017-10-20T15:32:28.289Z,280.00
2017-10-20T15:34:21.319Z,280.00
2017-10-20T15:35:21.255Z,280.00
2017-10-20T15:37:14.268Z,276.00
2017-10-20T15:38:14.202Z,272.00
2017-10-20T15:40:07.678Z,264.00
2017-10-20T15:41:07.163Z,272.00
2017-10-20T15:43:00.188Z,268.00
2017-10-20T15:44:00.156Z,268.00
2017-10-20T15:45:53.132Z,268.00
2017-10-20T15:46:53.071Z,268.00
2017-10-20T15:48:46.076Z,268.00
2017-10-20T15:49:46.022Z,264.00
2017-10-20T15:51:40.261Z,260.00
2017-10-20T15:52:40.203Z,264.00
2017-10-20T15:54:34.135Z,260.00
2017-10-20T15:55:34.081Z,256.00
2017-10-20T15:57:27.104Z,260.00
2017-10-20T15:58:27.036Z,252.00
2017-10-20T16:00:21.599Z,260.00
2017-10-20T16:01:21.528Z,256.00
2017-10-20T16:03:15.478Z,256.00
2017-10-20T16:04:15.411Z,256.00
2017-10-20T16:06:08.425Z,256.00
2017-10-20T16:07:08.361Z,252.00
2017-10-20T16:09:01.386Z,252.00
2017-10-20T16:10:01.985Z,252.00
2017-10-20T16:11:54.335Z,252.00
2017-10-20T16:12:54.288Z,252.00
2017-10-20T16:14:47.290Z,252.00
2017-10-20T16:15:47.225Z,248.00
2017-10-20T16:17:40.238Z,248.00
2017-10-20T16:18:40.184Z,248.00
2017-10-20T16:20:33.209Z,248.00
